createdAt,value
2015-10-05T00:00:25.195Z,9.2
2015-10-05T00:01:25.151Z,9.3
2015-10-05T00:02:25.092Z,9.4
2015-10-05T00:03:25.048Z,9.3
2015-10-05T00:04:24.988Z,9.2
2015-10-05T00:05:24.928Z,9
2015-10-05T00:06:24.884Z,9
2015-10-05T00:07:24.825Z,8.8
2015-10-05T00:08:24.765Z,8.8
2015-10-05T00:09:24.721Z,8.8
2015-10-05T00:10:24.661Z,8.8
2015-10-05T00:11:24.600Z,9
2015-10-05T00:12:24.557Z,9.1
2015-10-05T00:13:24.498Z,9.1
2015-10-05T00:14:24.453Z,9.3
2015-10-05T00:15:24.393Z,9.3
2015-10-05T00:16:24.349Z,9.1
2015-10-05T00:17:24.289Z,9.2
2015-10-05T00:18:24.230Z,9.2
2015-10-05T00:19:24.186Z,9
2015-10-05T00:20:24.125Z,8.9
2015-10-05T00:21:24.066Z,8.8
2015-10-05T00:22:24.022Z,8.8
2015-10-05T00:23:23.962Z,8.8
2015-10-05T00:24:23.918Z,8.8
2015-10-05T00:25:23.858Z,8.8
2015-10-05T00:26:23.797Z,9
2015-10-05T00:27:23.755Z,9
2015-10-05T00:28:23.694Z,9
2015-10-05T00:29:23.650Z,9.1
2015-10-05T00:30:23.591Z,9
2015-10-05T00:31:23.531Z,9
2015-10-05T00:32:23.487Z,9
2015-10-05T00:33:23.425Z,9
2015-10-05T00:34:23.380Z,9
2015-10-05T00:35:23.352Z,9
2015-10-05T00:36:23.276Z,8.8
2015-10-05T00:37:23.216Z,8.9
2015-10-05T00:38:23.157Z,8.9
2015-10-05T00:39:23.113Z,8.9
2015-10-05T00:40:23.052Z,8.9
2015-10-05T00:41:23.008Z,8.8
2015-10-05T00:42:22.949Z,8.5
2015-10-05T00:43:22.904Z,8.6
2015-10-05T00:44:22.844Z,8.7
2015-10-05T00:45:22.785Z,8.9
2015-10-05T00:46:22.741Z,8.9
2015-10-05T00:47:22.682Z,8.9
2015-10-05T00:48:22.621Z,8.8
2015-10-05T00:49:22.576Z,8.5
2015-10-05T00:50:22.518Z,8.5
2015-10-05T00:51:22.473Z,8.6
2015-10-05T00:52:22.413Z,8.5
2015-10-05T00:53:22.369Z,8.3
2015-10-05T00:54:22.309Z,8.4
2015-10-05T00:55:22.249Z,8.4
2015-10-05T00:56:22.206Z,8.6
2015-10-05T00:57:22.145Z,8.7
2015-10-05T00:58:22.087Z,8.5
2015-10-05T00:59:22.042Z,8.4
2015-10-05T01:00:21.982Z,8.5
2015-10-05T01:01:21.938Z,8.6
2015-10-05T01:02:21.879Z,8.6
2015-10-05T01:03:21.818Z,8.3
2015-10-05T01:04:21.774Z,8.2
2015-10-05T01:05:21.714Z,8.4
2015-10-05T01:06:21.654Z,8.4
2015-10-05T01:07:21.611Z,8.3
2015-10-05T01:08:21.551Z,8.3
2015-10-05T01:10:21.447Z,8.2
2015-10-05T01:11:21.403Z,8.3
2015-10-05T01:12:21.343Z,8.3
2015-10-05T01:13:21.284Z,8.4
2015-10-05T01:14:21.239Z,8.4
2015-10-05T01:15:21.179Z,8.5
2015-10-05T01:16:21.120Z,8.6
2015-10-05T01:17:21.076Z,8.7
2015-10-05T01:18:21.016Z,8.7
2015-10-05T01:19:20.972Z,8.6
2015-10-05T01:20:20.912Z,8.6
2015-10-05T01:21:20.853Z,8.7
2015-10-05T01:22:20.809Z,8.7
2015-10-05T01:23:20.748Z,8.8
2015-10-05T01:24:20.704Z,8.7
2015-10-05T01:25:20.645Z,8.8
2015-10-05T01:26:20.598Z,8.6
2015-10-05T01:27:20.538Z,8.4
2015-10-05T01:28:20.494Z,8.1
2015-10-05T01:29:20.433Z,7.9
2015-10-05T01:30:20.374Z,7.8
2015-10-05T01:31:20.314Z,7.8
2015-10-05T01:32:20.270Z,7.9
2015-10-05T01:33:20.211Z,8.1
2015-10-05T01:34:20.167Z,8.3
2015-10-05T01:35:20.107Z,8.5
2015-10-05T01:36:20.047Z,8.5
2015-10-05T01:37:20.002Z,8.3
2015-10-05T01:38:19.943Z,8.2
2015-10-05T01:39:19.883Z,8.3
2015-10-05T01:40:19.839Z,8.4
2015-10-05T01:41:19.780Z,8.4
2015-10-05T01:42:19.736Z,8.3
2015-10-05T01:43:19.676Z,8.1
2015-10-05T01:44:19.616Z,7.9
2015-10-05T01:45:19.572Z,8.1
2015-10-05T01:46:19.511Z,8.2
2015-10-05T01:47:19.469Z,8.3
2015-10-05T01:48:19.424Z,8.2
2015-10-05T01:49:19.349Z,8.2
2015-10-05T01:50:19.304Z,8.2
2015-10-05T01:51:19.244Z,8.3
2015-10-05T01:52:19.185Z,8.3
2015-10-05T01:53:19.141Z,8.1
2015-10-05T01:54:19.081Z,8.2
2015-10-05T01:55:19.036Z,8
2015-10-05T01:56:18.977Z,8
2015-10-05T01:57:18.916Z,8
2015-10-05T01:58:18.873Z,8.1
2015-10-05T01:59:18.813Z,8.3
2015-10-05T02:00:18.769Z,8.4
2015-10-05T02:01:18.710Z,8.4
2015-10-05T02:02:18.649Z,8.5
2015-10-05T02:03:18.605Z,8.5
2015-10-05T02:04:18.546Z,8.4
2015-10-05T02:05:18.485Z,8.3
2015-10-05T02:06:18.441Z,8.4
2015-10-05T02:07:18.382Z,8.4
2015-10-05T02:08:18.354Z,8.5
2015-10-05T02:09:18.279Z,8.5
2015-10-05T02:10:18.218Z,8.6
2015-10-05T02:11:18.174Z,8.6
2015-10-05T02:12:18.115Z,8.6
2015-10-05T02:13:18.071Z,8.5
2015-10-05T02:14:18.011Z,8.3
2015-10-05T02:15:17.949Z,8.2
2015-10-05T02:16:17.904Z,8
2015-10-05T02:17:17.843Z,8.1
2015-10-05T02:18:17.800Z,8.2
2015-10-05T02:19:17.740Z,8.1
2015-10-05T02:20:17.681Z,8.2
2015-10-05T02:21:17.636Z,8.2
2015-10-05T02:22:17.576Z,8.1
2015-10-05T02:23:17.533Z,8.2
2015-10-05T02:24:17.473Z,8.2
2015-10-05T02:25:17.412Z,8.3
2015-10-05T02:26:17.368Z,8.3
2015-10-05T02:27:17.309Z,8.2
2015-10-05T02:28:17.249Z,8.2
2015-10-05T02:29:17.206Z,8.2
2015-10-05T02:30:17.146Z,8.1
2015-10-05T02:31:17.086Z,8.2
2015-10-05T02:32:17.025Z,8
2015-10-05T02:33:16.982Z,7.7
2015-10-05T02:34:16.923Z,7.6
2015-10-05T02:35:16.878Z,7.6
2015-10-05T02:36:16.818Z,7.6
2015-10-05T02:37:16.758Z,7.6
2015-10-05T02:38:16.714Z,7.7
2015-10-05T02:39:16.654Z,7.8
2015-10-05T02:40:16.595Z,7.7
2015-10-05T02:41:16.550Z,7.7
2015-10-05T02:42:16.491Z,7.7
2015-10-05T02:43:16.447Z,7.6
2015-10-05T02:44:16.387Z,7.6
2015-10-05T02:45:16.327Z,7.7
2015-10-05T02:46:16.283Z,7.7
2015-10-05T02:47:16.223Z,7.8
2015-10-05T02:48:16.178Z,7.9
2015-10-05T02:49:16.120Z,8
2015-10-05T02:50:16.075Z,8.2
2015-10-05T02:51:16.016Z,8.3
2015-10-05T02:52:15.955Z,8.4
2015-10-05T02:53:15.912Z,8.5
2015-10-05T02:54:15.852Z,8.6
2015-10-05T02:55:15.792Z,8.6
2015-10-05T02:56:15.748Z,8.7
2015-10-05T02:57:15.688Z,8.7
2015-10-05T02:58:15.644Z,8.6
2015-10-05T02:59:15.584Z,8.6
2015-10-05T03:00:15.524Z,8.6
2015-10-05T03:01:15.480Z,8.6
2015-10-05T03:02:15.421Z,8.4
2015-10-05T03:03:15.377Z,8.4
2015-10-05T03:04:15.316Z,8.4
2015-10-05T03:05:15.272Z,8.5
2015-10-05T03:06:15.213Z,8.7
2015-10-05T03:07:15.150Z,8.8
2015-10-05T03:08:15.106Z,8.8
2015-10-05T03:09:15.046Z,8.8
2015-10-05T03:10:15.002Z,8.8
2015-10-05T03:11:14.943Z,8.9
2015-10-05T03:12:14.883Z,8.9
2015-10-05T03:13:14.838Z,8.9
2015-10-05T03:14:14.779Z,9
2015-10-05T03:15:14.734Z,9
2015-10-05T03:16:14.690Z,8.8
2015-10-05T03:17:14.630Z,8.8
2015-10-05T03:18:14.571Z,8.9
2015-10-05T03:19:14.526Z,9
2015-10-05T03:20:14.467Z,9.1
2015-10-05T03:21:14.407Z,9
2015-10-05T03:22:14.363Z,8.9
2015-10-05T03:23:14.303Z,8.9
2015-10-05T03:24:14.259Z,9
2015-10-05T03:25:14.199Z,8.9
2015-10-05T03:26:14.155Z,8.9
2015-10-05T03:27:14.096Z,8.9
2015-10-05T03:28:14.035Z,9
2015-10-05T03:29:13.976Z,9
2015-10-05T03:30:13.932Z,9
2015-10-05T03:31:14.123Z,9
2015-10-05T03:32:14.251Z,9
2015-10-05T03:33:13.799Z,9
2015-10-05T03:34:13.834Z,9
2015-10-05T03:35:13.665Z,9
2015-10-05T03:36:13.621Z,9
2015-10-05T03:39:13.457Z,8.9
2015-10-05T03:40:13.412Z,8.7
2015-10-05T03:41:13.368Z,8.6
2015-10-05T03:42:13.309Z,8.5
2015-10-05T03:45:13.911Z,8.6
2015-10-05T03:46:13.131Z,8.6
2015-10-05T03:47:13.057Z,8.6
2015-10-05T03:48:13.215Z,8.6
2015-10-05T03:50:12.892Z,8.7
2015-10-05T03:51:13.270Z,8.7
2015-10-05T03:53:12.744Z,8.4
2015-10-05T03:54:12.904Z,8.4
2015-10-05T03:55:13.078Z,8.5
2015-10-05T03:56:12.800Z,8.3
2015-10-05T03:57:12.521Z,8.3
2015-10-05T03:58:12.477Z,8.4
2015-10-05T03:59:12.417Z,8.6
2015-10-05T04:00:12.608Z,8.6
2015-10-05T04:01:12.798Z,8.6
2015-10-05T04:02:12.267Z,8.6
2015-10-05T04:03:13.066Z,8.6
2015-10-05T04:05:12.103Z,8.5
2015-10-05T04:06:12.919Z,8.4
2015-10-05T04:07:11.999Z,8.2
2015-10-05T04:09:12.052Z,8.4
2015-10-05T04:10:11.851Z,8.3
2015-10-05T04:11:11.994Z,8.3
2015-10-05T04:12:11.950Z,8.1
2015-10-05T04:13:11.938Z,8.2
2015-10-05T04:14:11.643Z,8.3
2015-10-05T04:15:11.569Z,8.3
2015-10-05T04:16:11.524Z,8.4
2015-10-05T04:17:11.463Z,8.4
2015-10-05T04:18:11.420Z,8.4
2015-10-05T04:19:11.361Z,8.4
2015-10-05T04:20:11.300Z,8.3
2015-10-05T04:21:11.257Z,8.5
2015-10-05T04:22:11.197Z,8.5
2015-10-05T04:23:11.152Z,8.6
2015-10-05T04:24:11.093Z,8.6
2015-10-05T04:25:11.049Z,8.6
2015-10-05T04:26:10.989Z,8.6
2015-10-05T04:27:10.929Z,8.5
2015-10-05T04:28:10.886Z,8.4
2015-10-05T04:29:10.840Z,8.2
2015-10-05T04:30:10.766Z,8.1
2015-10-05T04:31:10.721Z,8.1
2015-10-05T04:32:10.662Z,8.2
2015-10-05T04:33:10.617Z,8
2015-10-05T04:34:10.573Z,8
2015-10-05T04:35:10.498Z,8
2015-10-05T04:36:10.454Z,8.1
2015-10-05T04:37:10.394Z,8
2015-10-05T04:38:10.350Z,8
2015-10-05T04:39:10.291Z,8
2015-10-05T04:40:10.246Z,7.9
2015-10-05T04:41:10.186Z,8.1
2015-10-05T04:42:10.126Z,8
2015-10-05T04:43:10.068Z,8.1
2015-10-05T04:44:10.023Z,8.2
2015-10-05T04:45:09.963Z,8.4
2015-10-05T04:46:09.916Z,8.4
2015-10-05T04:47:09.872Z,8.5
2015-10-05T04:48:09.813Z,8.6
2015-10-05T04:49:09.752Z,8.6
2015-10-05T04:50:09.692Z,8.6
2015-10-05T04:51:09.648Z,8.4
2015-10-05T04:52:09.589Z,8.4
2015-10-05T04:53:09.529Z,8.4
2015-10-05T04:54:09.484Z,8.4
2015-10-05T04:55:09.426Z,8.4
2015-10-05T04:56:09.381Z,8.3
2015-10-05T04:57:09.321Z,8.1
2015-10-05T04:58:09.262Z,8.1
2015-10-05T04:59:09.217Z,8
2015-10-05T05:00:09.157Z,8
2015-10-05T05:01:09.098Z,8
2015-10-05T05:02:09.054Z,8.2
2015-10-05T05:03:08.994Z,8.2
2015-10-05T05:04:08.934Z,8.2
2015-10-05T05:05:08.890Z,8.2
2015-10-05T05:06:08.830Z,8.4
2015-10-05T05:07:08.786Z,8.3
2015-10-05T05:08:08.726Z,8.4
2015-10-05T05:09:08.682Z,8.5
2015-10-05T05:10:08.623Z,8.4
2015-10-05T05:11:08.563Z,8.1
2015-10-05T05:12:08.503Z,8
2015-10-05T05:13:08.459Z,8.1
2015-10-05T05:14:08.400Z,8.1
2015-10-05T05:15:08.355Z,7.9
2015-10-05T05:16:08.311Z,7.9
2015-10-05T05:17:08.236Z,8
2015-10-05T05:18:08.192Z,8.1
2015-10-05T05:19:08.131Z,7.9
2015-10-05T05:20:08.086Z,8
2015-10-05T05:21:08.028Z,7.9
2015-10-05T05:22:07.967Z,8
2015-10-05T05:23:07.924Z,8
2015-10-05T05:24:07.864Z,8
2015-10-05T05:25:07.805Z,8
2015-10-05T05:26:07.760Z,7.9
2015-10-05T05:27:07.700Z,7.9
2015-10-05T05:28:07.655Z,8
2015-10-05T05:29:07.596Z,7.9
2015-10-05T05:30:07.537Z,7.9
2015-10-05T05:31:07.492Z,8
2015-10-05T05:32:07.432Z,8.1
2015-10-05T05:33:07.372Z,8.1
2015-10-05T05:34:07.329Z,8
2015-10-05T05:35:07.269Z,7.6
2015-10-05T05:36:07.224Z,7.7
2015-10-05T05:37:07.165Z,7.7
2015-10-05T05:38:07.102Z,7.9
2015-10-05T05:39:07.058Z,8
2015-10-05T05:40:06.999Z,7.9
2015-10-05T05:41:06.954Z,7.8
2015-10-05T05:42:06.879Z,7.8
2015-10-05T05:43:06.835Z,8
2015-10-05T05:44:06.774Z,8.1
2015-10-05T05:45:06.731Z,8.2
2015-10-05T05:46:06.671Z,8.2
2015-10-05T05:47:06.612Z,8.2
2015-10-05T05:48:06.567Z,8.2
2015-10-05T05:49:06.507Z,8
2015-10-05T05:50:06.463Z,8
2015-10-05T05:51:06.404Z,7.9
2015-10-05T05:52:06.344Z,8
2015-10-05T05:53:06.315Z,7.7
2015-10-05T05:54:06.240Z,7.9
2015-10-05T05:55:06.180Z,7.8
2015-10-05T05:56:06.137Z,7.9
2015-10-05T05:57:06.077Z,8
2015-10-05T05:58:06.032Z,7.9
2015-10-05T05:59:05.973Z,8
2015-10-05T06:00:05.912Z,7.8
2015-10-05T06:01:05.868Z,7.5
2015-10-05T06:02:05.809Z,7.5
2015-10-05T06:03:05.749Z,7.5
2015-10-05T06:04:05.705Z,7.7
2015-10-05T06:05:05.646Z,7.7
2015-10-05T06:06:05.601Z,7.7
2015-10-05T06:07:05.542Z,7.8
2015-10-05T06:08:05.482Z,7.9
2015-10-05T06:09:05.437Z,8
2015-10-05T06:10:05.378Z,8.1
2015-10-05T06:11:05.334Z,8.1
2015-10-05T06:12:05.273Z,8.1
2015-10-05T06:13:05.214Z,7.9
2015-10-05T06:14:05.169Z,7.9
2015-10-05T06:15:05.109Z,8
2015-10-05T06:16:05.051Z,7.9
2015-10-05T06:17:05.006Z,7.7
2015-10-05T06:18:04.947Z,7.7
2015-10-05T06:19:04.902Z,7.7
2015-10-05T06:20:04.842Z,7.6
2015-10-05T06:21:04.783Z,7.6
2015-10-05T06:22:04.739Z,7.9
2015-10-05T06:23:04.679Z,8.1
2015-10-05T06:24:04.620Z,8.1
2015-10-05T06:25:04.575Z,8
2015-10-05T06:26:04.530Z,8.1
2015-10-05T06:27:04.471Z,8.2
2015-10-05T06:28:04.411Z,8.4
2015-10-05T06:29:04.352Z,8.5
2015-10-05T06:30:04.307Z,8.6
2015-10-05T06:31:04.247Z,8.6
2015-10-05T06:32:04.203Z,8.4
2015-10-05T06:33:04.141Z,8.5
2015-10-05T06:34:04.081Z,8.7
2015-10-05T06:35:04.037Z,8.7
2015-10-05T06:36:03.978Z,8.7
2015-10-05T06:37:03.917Z,8.5
2015-10-05T06:38:03.874Z,8.5
2015-10-05T06:39:03.813Z,8.4
2015-10-05T06:40:03.769Z,8.4
2015-10-05T06:41:03.710Z,8.6
2015-10-05T06:42:03.680Z,8.7
2015-10-05T06:43:03.605Z,8.6
2015-10-05T06:44:03.546Z,8.8
2015-10-05T06:45:03.502Z,8.9
2015-10-05T06:46:03.442Z,9
2015-10-05T06:47:03.398Z,8.9
2015-10-05T06:48:03.338Z,9.1
2015-10-05T06:49:03.294Z,9.2
2015-10-05T06:50:03.235Z,9.1
2015-10-05T06:51:03.191Z,9
2015-10-05T06:52:03.130Z,9.1
2015-10-05T06:53:03.086Z,9.1
2015-10-05T06:54:03.043Z,9.2
2015-10-05T06:55:02.983Z,9.3
2015-10-05T06:56:02.923Z,9.3
2015-10-05T06:57:02.877Z,9.4
2015-10-05T06:58:02.816Z,9.5
2015-10-05T06:59:02.757Z,9.5
2015-10-05T07:00:02.713Z,9.5
2015-10-05T07:01:02.684Z,9.6
2015-10-05T07:02:02.609Z,9.8
2015-10-05T07:03:02.549Z,9.9
2015-10-05T07:04:02.505Z,10.1
2015-10-05T07:05:02.446Z,10.2
2015-10-05T07:06:02.402Z,10.2
2015-10-05T07:07:02.341Z,10.1
2015-10-05T07:08:02.297Z,10.2
2015-10-05T07:09:02.238Z,10.2
2015-10-05T07:10:02.194Z,10.2
2015-10-05T07:11:02.134Z,10.2
2015-10-05T07:12:02.090Z,10.3
2015-10-05T07:13:02.030Z,10.3
2015-10-05T07:14:01.985Z,10.4
2015-10-05T07:15:01.926Z,10.5
2015-10-05T07:16:01.881Z,10.5
2015-10-05T07:17:01.822Z,10.6
2015-10-05T07:18:01.771Z,10.7
2015-10-05T07:19:01.698Z,10.5
2015-10-05T07:20:01.641Z,10.6
2015-10-05T07:21:01.569Z,10.7
2015-10-05T07:22:01.527Z,10.6
2015-10-05T07:23:01.462Z,10.6
2015-10-05T07:24:01.399Z,10.5
2015-10-05T07:25:01.335Z,10.5
2015-10-05T07:26:01.287Z,10.6
2015-10-05T07:27:01.223Z,10.7
2015-10-05T07:28:01.189Z,10.9
2015-10-05T07:29:01.112Z,11
2015-10-05T07:30:01.066Z,11
2015-10-05T07:31:01.020Z,11.1
2015-10-05T07:32:00.960Z,11.1
2015-10-05T07:33:00.913Z,11.1
2015-10-05T07:34:00.853Z,11.2
2015-10-05T07:35:00.808Z,11.2
2015-10-05T07:36:00.748Z,11.2
2015-10-05T07:37:00.702Z,11.4
2015-10-05T07:38:00.643Z,11.4
2015-10-05T07:39:00.598Z,11.4
2015-10-05T07:40:00.538Z,11.5
2015-10-05T07:41:00.495Z,11.5
2015-10-05T07:42:00.450Z,11.6
2015-10-05T07:43:00.390Z,11.6
2015-10-05T07:44:00.346Z,11.7
2015-10-05T07:45:00.301Z,11.7
2015-10-05T07:46:00.242Z,11.7
2015-10-05T07:47:00.198Z,11.7
2015-10-05T07:48:00.139Z,11.8
2015-10-05T07:49:00.079Z,11.8
2015-10-05T07:50:00.034Z,11.9
2015-10-05T07:50:59.990Z,11.9
2015-10-05T07:51:59.931Z,11.9
2015-10-05T07:52:59.887Z,12
2015-10-05T07:53:59.826Z,12.1
2015-10-05T07:54:59.784Z,12.2
2015-10-05T07:55:59.739Z,12.3
2015-10-05T07:56:59.678Z,12.4
2015-10-05T07:57:59.620Z,12.5
2015-10-05T07:58:59.575Z,12.6
2015-10-05T07:59:59.531Z,12.7
2015-10-05T08:00:59.471Z,12.8
2015-10-05T08:01:59.442Z,12.9
2015-10-05T08:02:59.368Z,13
2015-10-05T08:03:59.339Z,13.2
2015-10-05T08:04:59.263Z,13.3
2015-10-05T08:05:59.220Z,13.3
2015-10-05T08:06:59.176Z,13.4
2015-10-05T08:07:59.115Z,13.5
2015-10-05T08:08:59.069Z,13.6
2015-10-05T08:09:59.008Z,13.7
2015-10-05T08:10:58.964Z,13.8
2015-10-05T08:11:58.905Z,13.9
2015-10-05T08:12:58.861Z,13.9
2015-10-05T08:13:58.801Z,13.9
2015-10-05T08:14:58.741Z,13.9
2015-10-05T08:15:58.697Z,13.9
2015-10-05T08:16:58.653Z,13.9
2015-10-05T08:17:58.593Z,13.9
2015-10-05T08:18:58.553Z,13.9
2015-10-05T08:19:58.493Z,13.8
2015-10-05T08:20:58.448Z,13.8
2015-10-05T08:21:58.389Z,13.8
2015-10-05T08:22:58.345Z,13.8
2015-10-05T08:23:58.284Z,13.8
2015-10-05T08:24:58.241Z,13.8
2015-10-05T08:25:58.198Z,13.9
2015-10-05T08:26:58.137Z,13.9
2015-10-05T08:27:58.093Z,13.9
2015-10-05T08:28:58.049Z,14
2015-10-05T08:29:57.989Z,13.9
2015-10-05T08:30:57.945Z,13.9
2015-10-05T08:31:57.885Z,13.9
2015-10-05T08:32:57.842Z,14
2015-10-05T08:33:57.797Z,14
2015-10-05T08:34:57.737Z,14
2015-10-05T08:35:57.693Z,14
2015-10-05T08:36:57.649Z,14
2015-10-05T08:37:57.589Z,14
2015-10-05T08:38:57.545Z,14
2015-10-05T08:39:57.486Z,14
2015-10-05T08:40:57.442Z,14
2015-10-05T08:41:57.397Z,14
2015-10-05T08:42:57.337Z,14
2015-10-05T08:43:57.293Z,14.1
2015-10-05T08:44:57.233Z,14.1
2015-10-05T08:45:57.189Z,14.1
2015-10-05T08:46:57.130Z,14.1
2015-10-05T08:47:57.085Z,14.1
2015-10-05T08:48:57.042Z,14.2
2015-10-05T08:49:56.981Z,14.1
2015-10-05T08:50:56.937Z,14.1
2015-10-05T08:51:56.893Z,14.2
2015-10-05T08:52:56.833Z,14.2
2015-10-05T08:53:56.789Z,14.2
2015-10-05T08:54:56.730Z,14.2
2015-10-05T08:55:56.685Z,14.2
2015-10-05T08:56:56.626Z,14.3
2015-10-05T08:57:56.613Z,14.3
2015-10-05T08:58:56.537Z,14.3
2015-10-05T08:59:56.474Z,14.3
2015-10-05T09:00:56.430Z,14.3
2015-10-05T09:01:56.386Z,14.4
2015-10-05T09:02:56.327Z,14.4
2015-10-05T09:03:56.283Z,14.4
2015-10-05T09:04:56.238Z,14.4
2015-10-05T09:05:56.179Z,14.4
2015-10-05T09:06:56.135Z,14.4
2015-10-05T09:07:56.074Z,14.4
2015-10-05T09:08:56.031Z,14.5
2015-10-05T09:09:55.986Z,14.5
2015-10-05T09:10:55.927Z,14.4
2015-10-05T09:11:55.882Z,14.5
2015-10-05T09:12:55.838Z,14.5
2015-10-05T09:13:55.779Z,14.5
2015-10-05T09:14:55.735Z,14.5
2015-10-05T09:15:55.691Z,14.5
2015-10-05T09:16:55.631Z,14.6
2015-10-05T09:17:55.571Z,14.6
2015-10-05T09:18:55.527Z,14.6
2015-10-05T09:19:55.483Z,14.7
2015-10-05T09:20:55.424Z,14.7
2015-10-05T09:21:55.379Z,14.7
2015-10-05T09:22:55.335Z,14.7
2015-10-05T09:23:55.275Z,14.7
2015-10-05T09:24:55.231Z,14.7
2015-10-05T09:25:55.187Z,14.7
2015-10-05T09:26:55.127Z,14.7
2015-10-05T09:27:55.083Z,14.7
2015-10-05T09:28:55.039Z,14.7
2015-10-05T09:29:54.980Z,14.8
2015-10-05T09:30:54.935Z,14.8
2015-10-05T09:31:54.875Z,14.8
2015-10-05T09:32:54.831Z,14.8
2015-10-05T09:33:54.771Z,14.8
2015-10-05T09:34:54.727Z,14.8
2015-10-05T09:35:54.683Z,14.8
2015-10-05T09:36:54.624Z,14.8
2015-10-05T09:37:54.579Z,14.8
2015-10-05T09:38:54.520Z,14.8
2015-10-05T09:39:54.476Z,14.9
2015-10-05T09:40:54.432Z,14.9
2015-10-05T09:41:54.388Z,14.9
2015-10-05T09:42:54.326Z,14.9
2015-10-05T09:43:54.283Z,14.9
2015-10-05T09:44:54.220Z,15
2015-10-05T09:45:54.176Z,15
2015-10-05T09:46:54.117Z,15
2015-10-05T09:47:54.088Z,15
2015-10-05T09:48:54.028Z,15.1
2015-10-05T09:49:53.968Z,15.1
2015-10-05T09:50:53.925Z,15.1
2015-10-05T09:51:53.865Z,15.1
2015-10-05T09:52:53.820Z,15.2
2015-10-05T09:53:53.776Z,15.2
2015-10-05T09:54:53.732Z,15.2
2015-10-05T09:55:53.673Z,15.2
2015-10-05T09:56:53.629Z,15.2
2015-10-05T09:57:53.569Z,15.3
2015-10-05T09:58:53.525Z,15.3
2015-10-05T09:59:53.465Z,15.3
2015-10-05T10:00:53.421Z,15.3
2015-10-05T10:01:53.376Z,15.4
2015-10-05T10:02:53.333Z,15.4
2015-10-05T10:03:53.272Z,15.4
2015-10-05T10:04:53.228Z,15.4
2015-10-05T10:05:53.169Z,15.5
2015-10-05T10:06:53.125Z,15.5
2015-10-05T10:07:53.080Z,15.5
2015-10-05T10:08:53.036Z,15.5
2015-10-05T10:09:52.977Z,15.6
2015-10-05T10:10:52.933Z,15.7
2015-10-05T10:11:52.872Z,15.7
2015-10-05T10:12:52.828Z,15.7
2015-10-05T10:13:52.784Z,15.8
2015-10-05T10:14:52.725Z,15.8
2015-10-05T10:15:52.680Z,15.8
2015-10-05T10:16:52.621Z,15.8
2015-10-05T10:17:52.577Z,15.8
2015-10-05T10:18:52.532Z,15.9
2015-10-05T10:19:52.472Z,15.9
2015-10-05T10:20:52.428Z,15.9
2015-10-05T10:21:52.385Z,16
2015-10-05T10:22:52.324Z,16
2015-10-05T10:23:52.281Z,16
2015-10-05T10:24:52.221Z,16
2015-10-05T10:25:52.177Z,16
2015-10-05T10:26:52.132Z,16
2015-10-05T10:27:52.088Z,16
2015-10-05T10:28:52.029Z,16
2015-10-05T10:29:51.969Z,16.1
2015-10-05T10:30:51.925Z,16.1
2015-10-05T10:31:51.881Z,16.1
2015-10-05T10:32:51.821Z,16.2
2015-10-05T10:33:51.777Z,16.2
2015-10-05T10:34:51.716Z,16.2
2015-10-05T10:35:51.673Z,16.2
2015-10-05T10:36:51.629Z,16.2
2015-10-05T10:37:51.569Z,16.2
2015-10-05T10:38:51.541Z,16.2
2015-10-05T10:39:51.478Z,16.2
2015-10-05T10:40:51.434Z,16.3
2015-10-05T10:41:51.389Z,16.3
2015-10-05T10:42:51.330Z,16.3
2015-10-05T10:43:51.285Z,16.4
2015-10-05T10:44:51.226Z,16.5
2015-10-05T10:45:51.181Z,16.5
2015-10-05T10:46:51.121Z,16.5
2015-10-05T10:47:51.078Z,16.4
2015-10-05T10:48:51.034Z,16.5
2015-10-05T10:49:50.974Z,16.5
2015-10-05T10:50:50.915Z,16.5
2015-10-05T10:51:50.854Z,16.5
2015-10-05T10:52:50.810Z,16.5
2015-10-05T10:53:50.765Z,16.6
2015-10-05T10:54:50.706Z,16.6
2015-10-05T10:55:50.662Z,16.6
2015-10-05T10:56:50.618Z,16.7
2015-10-05T10:57:50.574Z,16.7
2015-10-05T10:58:50.514Z,16.8
2015-10-05T10:59:50.470Z,16.8
2015-10-05T11:00:50.410Z,16.8
2015-10-05T11:01:50.366Z,16.8
2015-10-05T11:02:50.306Z,16.8
2015-10-05T11:03:50.262Z,16.8
2015-10-05T11:04:50.203Z,16.9
2015-10-05T11:05:50.159Z,16.9
2015-10-05T11:06:50.115Z,17
2015-10-05T11:07:50.054Z,17.1
2015-10-05T11:08:50.011Z,17.1
2015-10-05T11:09:49.966Z,17.1
2015-10-05T11:10:49.906Z,17.1
2015-10-05T11:11:49.862Z,17.2
2015-10-05T11:12:49.818Z,17.2
2015-10-05T11:13:49.758Z,17.3
2015-10-05T11:14:49.714Z,17.2
2015-10-05T11:15:49.655Z,17.2
2015-10-05T11:16:49.611Z,17.2
2015-10-05T11:17:49.581Z,17.2
2015-10-05T11:18:49.506Z,17.3
2015-10-05T11:19:49.462Z,17.4
2015-10-05T11:20:49.433Z,17.4
2015-10-05T11:21:49.359Z,17.4
2015-10-05T11:22:49.314Z,17.5
2015-10-05T11:23:49.270Z,17.5
2015-10-05T11:24:49.226Z,17.6
2015-10-05T11:25:49.166Z,17.5
2015-10-05T11:26:49.138Z,17.6
2015-10-05T11:27:49.078Z,17.6
2015-10-05T11:28:49.018Z,17.6
2015-10-05T11:29:48.974Z,17.6
2015-10-05T11:30:48.911Z,17.6
2015-10-05T11:31:48.867Z,17.6
2015-10-05T11:32:48.824Z,17.7
2015-10-05T11:33:48.779Z,17.7
2015-10-05T11:34:48.719Z,17.7
2015-10-05T11:35:48.675Z,17.7
2015-10-05T11:36:48.631Z,17.9
2015-10-05T11:37:48.571Z,18
2015-10-05T11:38:48.527Z,18
2015-10-05T11:39:48.483Z,18
2015-10-05T11:40:48.423Z,18
2015-10-05T11:41:48.394Z,17.9
2015-10-05T11:42:48.335Z,18
2015-10-05T11:43:48.275Z,18
2015-10-05T11:44:48.231Z,18
2015-10-05T11:45:48.187Z,18
2015-10-05T11:46:48.143Z,18
2015-10-05T11:47:48.083Z,18.1
2015-10-05T11:48:48.039Z,18.1
2015-10-05T11:49:47.995Z,18
2015-10-05T11:50:47.951Z,18.1
2015-10-05T11:51:47.891Z,18
2015-10-05T11:52:47.846Z,18.1
2015-10-05T11:53:47.802Z,18.1
2015-10-05T11:54:47.743Z,18.2
2015-10-05T11:55:47.699Z,18.2
2015-10-05T11:56:47.655Z,18.2
2015-10-05T11:57:47.596Z,18.3
2015-10-05T11:58:47.552Z,18.2
2015-10-05T11:59:47.507Z,18.3
2015-10-05T12:00:47.447Z,18.2
2015-10-05T12:01:47.418Z,18.3
2015-10-05T12:02:47.359Z,18.3
2015-10-05T12:03:47.315Z,18.3
2015-10-05T12:04:47.254Z,18.4
2015-10-05T12:05:47.210Z,18.4
2015-10-05T12:06:47.168Z,18.4
2015-10-05T12:07:47.123Z,18.4
2015-10-05T12:08:47.063Z,18.4
2015-10-05T12:09:47.018Z,18.3
2015-10-05T12:10:46.974Z,18.4
2015-10-05T12:11:46.915Z,18.4
2015-10-05T12:12:46.871Z,18.4
2015-10-05T12:13:46.827Z,18.5
2015-10-05T12:14:46.780Z,18.6
2015-10-05T12:15:46.721Z,18.6
2015-10-05T12:16:46.676Z,18.6
2015-10-05T12:17:46.632Z,18.6
2015-10-05T12:18:46.587Z,18.5
2015-10-05T12:19:46.543Z,18.5
2015-10-05T12:20:46.498Z,18.5
2015-10-05T12:21:46.439Z,18.6
2015-10-05T12:22:46.400Z,18.6
2015-10-05T12:23:46.339Z,18.6
2015-10-05T12:24:46.296Z,18.6
2015-10-05T12:25:46.252Z,18.6
2015-10-05T12:26:46.208Z,18.6
2015-10-05T12:27:46.148Z,18.6
2015-10-05T12:28:46.103Z,18.6
2015-10-05T12:29:46.060Z,18.6
2015-10-05T12:30:46.000Z,18.6
2015-10-05T12:31:45.956Z,18.6
2015-10-05T12:32:45.911Z,18.6
2015-10-05T12:33:45.872Z,18.6
2015-10-05T12:34:45.813Z,18.6
2015-10-05T12:35:45.769Z,18.7
2015-10-05T12:36:45.709Z,18.7
2015-10-05T12:37:45.665Z,18.8
2015-10-05T12:38:45.621Z,18.8
2015-10-05T12:39:45.577Z,18.8
2015-10-05T12:40:45.533Z,18.7
2015-10-05T12:41:45.644Z,18.7
2015-10-05T12:42:45.429Z,18.8
2015-10-05T12:43:45.384Z,18.8
2015-10-05T12:44:45.341Z,18.9
2015-10-05T12:45:45.280Z,18.8
2015-10-05T12:46:45.235Z,18.8
2015-10-05T12:47:45.193Z,18.8
2015-10-05T12:48:45.148Z,18.9
2015-10-05T12:49:45.088Z,18.9
2015-10-05T12:50:45.044Z,18.9
2015-10-05T12:51:45.000Z,18.9
2015-10-05T12:52:44.956Z,18.9
2015-10-05T12:53:44.912Z,19
2015-10-05T12:54:44.852Z,19
2015-10-05T12:55:44.807Z,19.1
2015-10-05T12:56:44.763Z,19
2015-10-05T12:57:44.704Z,19
2015-10-05T12:58:44.659Z,18.9
2015-10-05T12:59:44.616Z,18.9
2015-10-05T13:00:44.571Z,18.9
2015-10-05T13:01:44.512Z,18.9
2015-10-05T13:02:44.468Z,18.8
2015-10-05T13:03:44.423Z,18.8
2015-10-05T13:04:44.379Z,18.8
2015-10-05T13:05:44.321Z,18.7
2015-10-05T13:06:44.276Z,18.7
2015-10-05T13:07:44.231Z,18.8
2015-10-05T13:08:44.184Z,18.7
2015-10-05T13:09:44.125Z,18.7
2015-10-05T13:10:44.096Z,18.7
2015-10-05T13:11:44.051Z,18.7
2015-10-05T13:12:43.992Z,18.7
2015-10-05T13:13:43.948Z,18.7
2015-10-05T13:14:43.889Z,18.7
2015-10-05T13:15:43.845Z,18.7
2015-10-05T13:16:43.801Z,18.7
2015-10-05T13:17:43.756Z,18.7
2015-10-05T13:18:43.712Z,18.7
2015-10-05T13:19:43.653Z,18.8
2015-10-05T13:20:43.608Z,18.8
2015-10-05T13:21:43.564Z,18.8
2015-10-05T13:22:43.520Z,18.7
2015-10-05T13:23:43.475Z,18.8
2015-10-05T13:24:43.416Z,18.8
2015-10-05T13:25:43.387Z,18.8
2015-10-05T13:26:43.328Z,18.7
2015-10-05T13:27:43.284Z,18.8
2015-10-05T13:28:43.239Z,18.7
2015-10-05T13:29:43.180Z,18.7
2015-10-05T13:30:43.151Z,18.7
2015-10-05T13:31:43.092Z,18.7
2015-10-05T13:32:43.047Z,18.7
2015-10-05T13:33:43.003Z,18.7
2015-10-05T13:34:42.959Z,18.7
2015-10-05T13:35:42.899Z,18.7
2015-10-05T13:36:42.855Z,18.7
2015-10-05T13:37:42.811Z,18.6
2015-10-05T13:38:42.766Z,18.6
2015-10-05T13:39:42.708Z,18.6
2015-10-05T13:40:42.663Z,18.7
2015-10-05T13:41:42.619Z,18.7
2015-10-05T13:42:42.575Z,18.7
2015-10-05T13:43:42.515Z,18.7
2015-10-05T13:44:42.471Z,18.7
2015-10-05T13:45:42.427Z,18.7
2015-10-05T13:46:42.383Z,18.7
2015-10-05T13:47:42.339Z,18.7